createdAt,value
2019-05-09T00:02:24.173Z,8.13
2019-05-09T00:04:54.039Z,13.03
2019-05-09T00:07:23.954Z,8.20
2019-05-09T00:09:54.061Z,9.57
2019-05-09T00:12:23.975Z,7.53
2019-05-09T00:14:54.098Z,8.17
2019-05-09T00:17:24.097Z,8.43
2019-05-09T00:19:55.782Z,7.57
2019-05-09T00:22:25.693Z,8.73
2019-05-09T00:24:55.610Z,9.30
2019-05-09T00:27:25.912Z,7.80
2019-05-09T00:29:56.417Z,6.70
2019-05-09T00:32:30.853Z,7.27
2019-05-09T00:35:13.971Z,7.90
2019-05-09T00:37:59.776Z,8.17
2019-05-09T00:40:29.701Z,6.87
2019-05-09T00:42:59.602Z,7.00
2019-05-09T00:45:33.635Z,6.13
2019-05-09T00:48:04.050Z,8.00
2019-05-09T00:50:34.296Z,5.73
2019-05-09T00:53:04.764Z,6.50
2019-05-09T00:55:34.726Z,6.67
2019-05-09T00:58:05.571Z,5.07
2019-05-09T01:00:35.582Z,7.03
2019-05-09T01:03:05.374Z,7.73
2019-05-09T01:05:35.312Z,5.50
2019-05-09T01:08:05.325Z,6.93
2019-05-09T01:10:35.238Z,5.73
2019-05-09T01:13:05.152Z,9.00
2019-05-09T01:15:35.162Z,8.13
2019-05-09T01:18:05.171Z,4.60
2019-05-09T01:20:35.099Z,8.50
2019-05-09T01:23:05.003Z,6.30
2019-05-09T01:25:35.013Z,5.73
2019-05-09T01:28:05.417Z,7.27
2019-05-09T01:30:35.644Z,5.17
2019-05-09T01:33:13.657Z,4.27
2019-05-09T01:35:43.712Z,6.00
2019-05-09T01:38:14.389Z,5.53
2019-05-09T01:40:44.525Z,5.57
2019-05-09T01:43:14.500Z,4.50
2019-05-09T01:45:47.048Z,5.40
2019-05-09T01:48:16.717Z,6.20
2019-05-09T01:50:46.830Z,4.50
2019-05-09T01:53:18.206Z,5.70
2019-05-09T01:56:03.295Z,4.83
2019-05-09T01:58:34.567Z,6.97
2019-05-09T02:01:06.831Z,5.33
2019-05-09T02:03:36.744Z,5.47
2019-05-09T02:06:07.495Z,4.63
2019-05-09T02:08:37.460Z,4.57
2019-05-09T02:11:07.664Z,5.80
2019-05-09T02:13:37.580Z,5.03
2019-05-09T02:16:13.991Z,6.23
2019-05-09T02:18:45.366Z,5.33
2019-05-09T02:21:15.477Z,4.50
2019-05-09T02:23:45.390Z,4.43
2019-05-09T02:26:15.307Z,4.10
2019-05-09T02:28:45.316Z,6.07
2019-05-09T02:31:16.506Z,4.87
2019-05-09T02:33:46.813Z,6.10
2019-05-09T02:36:18.930Z,4.70
2019-05-09T02:38:48.982Z,5.20
2019-05-09T02:41:19.889Z,3.53
2019-05-09T02:43:50.058Z,5.00
2019-05-09T02:46:24.345Z,4.87
2019-05-09T02:48:54.457Z,5.67
2019-05-09T02:51:24.371Z,6.33
2019-05-09T02:53:54.287Z,7.43
2019-05-09T02:56:24.202Z,6.90
2019-05-09T02:58:59.041Z,3.70
2019-05-09T03:01:31.302Z,4.83
2019-05-09T03:04:01.406Z,5.23
2019-05-09T03:06:31.323Z,3.80
2019-05-09T03:09:01.234Z,4.47
2019-05-09T03:11:31.355Z,4.90
2019-05-09T03:14:01.263Z,4.20
2019-05-09T03:16:31.170Z,4.70
2019-05-09T03:19:01.185Z,5.70
2019-05-09T03:21:32.980Z,4.37
2019-05-09T03:24:02.875Z,4.77
2019-05-09T03:26:38.585Z,4.87
2019-05-09T03:29:19.053Z,5.60
2019-05-09T03:31:50.437Z,4.00
2019-05-09T03:34:20.851Z,5.60
2019-05-09T03:36:51.123Z,6.87
2019-05-09T03:39:21.033Z,5.83
2019-05-09T03:41:51.046Z,4.20
2019-05-09T03:44:21.154Z,5.50
2019-05-09T03:46:52.724Z,4.83
2019-05-09T03:49:24.226Z,4.03
2019-05-09T03:51:54.139Z,4.20
2019-05-09T03:54:24.055Z,6.20
2019-05-09T03:56:57.222Z,5.70
2019-05-09T03:59:27.853Z,3.80
2019-05-09T04:01:59.003Z,5.63
2019-05-09T04:04:29.512Z,6.93
2019-05-09T04:06:59.419Z,4.93
2019-05-09T04:09:29.337Z,4.97
2019-05-09T04:12:00.277Z,4.53
2019-05-09T04:14:31.880Z,6.83
2019-05-09T04:17:02.122Z,4.87
2019-05-09T04:19:32.035Z,4.87
2019-05-09T04:22:02.506Z,6.23
2019-05-09T04:24:33.027Z,3.90
2019-05-09T04:27:07.871Z,3.87
2019-05-09T04:29:37.981Z,6.83
2019-05-09T04:32:08.150Z,5.47
2019-05-09T04:34:38.403Z,3.57
2019-05-09T04:37:12.102Z,7.63
2019-05-09T04:39:40.777Z,4.73
2019-05-09T04:42:11.384Z,5.27
2019-05-09T04:44:49.570Z,6.73
2019-05-09T04:47:17.499Z,5.10
2019-05-09T04:49:48.063Z,5.23
2019-05-09T04:52:18.312Z,7.57
2019-05-09T04:54:48.613Z,3.43
2019-05-09T04:57:18.729Z,4.73
2019-05-09T04:59:48.649Z,4.53
2019-05-09T05:02:27.563Z,7.33
2019-05-09T05:04:58.581Z,6.60
2019-05-09T05:07:28.920Z,6.27
2019-05-09T05:09:59.009Z,5.80
2019-05-09T05:12:28.928Z,6.90
2019-05-09T05:14:58.836Z,9.13
2019-05-09T05:17:30.710Z,9.77
2019-05-09T05:20:02.213Z,10.67
2019-05-09T05:22:33.689Z,7.73
2019-05-09T05:25:04.888Z,8.03
2019-05-09T05:27:34.796Z,10.13
2019-05-09T05:30:07.487Z,9.83
2019-05-09T05:32:45.338Z,7.83
2019-05-09T05:35:28.318Z,14.17
2019-05-09T05:37:58.164Z,12.23
2019-05-09T05:40:32.718Z,8.87
2019-05-09T05:43:00.427Z,4.67
2019-05-09T05:45:31.812Z,9.93
2019-05-09T05:48:08.943Z,9.27
2019-05-09T05:50:38.914Z,7.07
2019-05-09T05:53:08.851Z,11.57
2019-05-09T05:55:39.035Z,7.00
2019-05-09T05:58:08.882Z,4.77
2019-05-09T06:00:38.961Z,6.97
2019-05-09T06:03:08.943Z,5.63
2019-05-09T06:05:38.985Z,8.20
2019-05-09T06:08:08.780Z,7.43
2019-05-09T06:10:39.525Z,8.57
2019-05-09T06:13:09.511Z,9.80
2019-05-09T06:15:40.043Z,6.50
2019-05-09T06:18:09.927Z,6.93
2019-05-09T06:20:39.847Z,8.53
2019-05-09T06:23:10.578Z,8.90
2019-05-09T06:25:40.848Z,8.37
2019-05-09T06:28:10.769Z,8.20
2019-05-09T06:30:41.319Z,10.30
2019-05-09T06:33:11.772Z,7.90
2019-05-09T06:35:41.880Z,11.47
2019-05-09T06:38:11.791Z,8.43
2019-05-09T06:40:41.771Z,9.43
2019-05-09T06:43:19.396Z,9.70
2019-05-09T06:46:02.878Z,12.70
2019-05-09T06:48:33.662Z,13.87
2019-05-09T06:51:03.575Z,11.43
2019-05-09T06:53:33.489Z,10.20
2019-05-09T06:56:03.605Z,12.90
2019-05-09T06:58:34.894Z,9.90
2019-05-09T07:01:19.524Z,17.13
2019-05-09T07:04:09.201Z,15.67
2019-05-09T07:06:58.783Z,10.73
2019-05-09T07:09:29.986Z,8.20
2019-05-09T07:12:00.004Z,10.00
2019-05-09T07:14:38.223Z,11.87
2019-05-09T07:17:08.236Z,11.93
2019-05-09T07:19:38.676Z,10.63
2019-05-09T07:22:18.509Z,11.93
2019-05-09T07:25:10.440Z,8.73
2019-05-09T07:27:41.898Z,9.00
2019-05-09T07:30:31.727Z,11.80
2019-05-09T07:33:09.199Z,12.17
2019-05-09T07:35:39.111Z,9.83
2019-05-09T07:38:08.908Z,10.20
2019-05-09T07:40:38.939Z,11.63
2019-05-09T07:43:08.854Z,10.00
2019-05-09T07:45:40.440Z,10.57
2019-05-09T07:48:10.548Z,10.37
2019-05-09T07:50:40.358Z,14.43
2019-05-09T07:53:10.571Z,12.30
2019-05-09T07:55:40.486Z,13.70
2019-05-09T07:58:14.249Z,12.37
2019-05-09T08:00:42.869Z,10.30
2019-05-09T08:03:13.411Z,10.97
2019-05-09T08:05:43.290Z,12.80
2019-05-09T08:08:18.713Z,12.87
2019-05-09T08:10:48.911Z,12.50
2019-05-09T08:13:21.578Z,11.77
2019-05-09T08:15:50.606Z,13.93
2019-05-09T08:18:20.815Z,14.10
2019-05-09T08:20:51.022Z,11.67
2019-05-09T08:23:20.936Z,14.13
2019-05-09T08:25:50.850Z,8.83
2019-05-09T08:28:20.860Z,11.07
2019-05-09T08:30:50.774Z,13.30
2019-05-09T08:33:20.981Z,8.80
2019-05-09T08:35:52.702Z,9.70
2019-05-09T08:38:22.577Z,8.40
2019-05-09T08:40:53.959Z,12.70
2019-05-09T08:43:24.087Z,11.10
2019-05-09T08:45:53.989Z,8.67
2019-05-09T08:48:23.847Z,12.93
2019-05-09T08:50:58.126Z,10.70
2019-05-09T08:53:27.659Z,8.87
2019-05-09T08:55:58.149Z,10.10
2019-05-09T08:58:28.474Z,12.40
2019-05-09T09:01:03.993Z,12.23
2019-05-09T09:03:30.757Z,9.37
2019-05-09T09:06:00.770Z,7.43
2019-05-09T09:08:30.682Z,9.87
2019-05-09T09:11:00.691Z,8.43
2019-05-09T09:13:30.606Z,6.93
2019-05-09T09:16:14.416Z,9.83
2019-05-09T09:18:32.399Z,8.00
2019-05-09T09:21:02.745Z,13.73
2019-05-09T09:23:44.203Z,9.60
2019-05-09T09:26:04.792Z,9.80
2019-05-09T09:28:35.160Z,8.87
2019-05-09T09:31:07.884Z,8.57
2019-05-09T09:33:37.631Z,6.70
2019-05-09T09:36:08.734Z,8.43
2019-05-09T09:38:38.803Z,9.93
2019-05-09T09:41:08.607Z,5.27
2019-05-09T09:43:38.709Z,8.17
2019-05-09T09:46:14.295Z,10.50
2019-05-09T09:48:40.248Z,8.80
2019-05-09T09:51:10.515Z,8.57
2019-05-09T09:53:40.528Z,6.23
2019-05-09T09:56:10.438Z,8.97
2019-05-09T09:58:40.816Z,7.17
2019-05-09T10:01:28.801Z,8.53
2019-05-09T10:04:15.766Z,10.90
2019-05-09T10:06:32.254Z,9.70
2019-05-09T10:09:02.128Z,12.47
2019-05-09T10:11:32.527Z,9.17
2019-05-09T10:14:02.443Z,10.13
2019-05-09T10:16:38.987Z,8.70
2019-05-09T10:19:25.075Z,9.57
2019-05-09T10:21:59.714Z,8.70
2019-05-09T10:24:30.210Z,6.27
2019-05-09T10:27:08.669Z,8.17
2019-05-09T10:29:39.167Z,7.70
2019-05-09T10:32:14.311Z,8.83
2019-05-09T10:34:44.706Z,8.00
2019-05-09T10:37:14.821Z,10.93
2019-05-09T10:39:44.730Z,8.20
2019-05-09T10:42:29.104Z,8.03
2019-05-09T10:45:03.438Z,11.33
2019-05-09T10:47:35.214Z,13.07
2019-05-09T10:50:08.522Z,11.70
2019-05-09T10:52:38.776Z,10.50
2019-05-09T10:55:09.447Z,10.70
2019-05-09T10:57:42.360Z,8.10
2019-05-09T11:00:13.839Z,8.87
2019-05-09T11:02:43.836Z,10.10
2019-05-09T11:05:14.045Z,11.87
2019-05-09T11:07:43.959Z,16.00
2019-05-09T11:10:25.878Z,11.63
2019-05-09T11:12:47.882Z,9.73
2019-05-09T11:15:18.122Z,8.03
2019-05-09T11:17:48.034Z,9.27
2019-05-09T11:20:19.379Z,8.50
2019-05-09T11:22:49.828Z,7.57
2019-05-09T11:25:19.843Z,9.67
2019-05-09T11:28:06.809Z,7.80
2019-05-09T11:30:22.320Z,6.50
2019-05-09T11:32:52.498Z,7.43
2019-05-09T11:35:22.500Z,9.07
2019-05-09T11:37:52.397Z,9.50
2019-05-09T11:40:22.566Z,8.87
2019-05-09T11:42:52.412Z,10.10
2019-05-09T11:45:22.503Z,10.80
2019-05-09T11:47:52.641Z,11.77
2019-05-09T11:50:23.339Z,9.43
2019-05-09T11:52:53.820Z,9.53
2019-05-09T11:55:32.402Z,7.70
2019-05-09T11:57:58.789Z,11.07
2019-05-09T12:00:29.412Z,9.07
2019-05-09T12:02:59.455Z,9.07
2019-05-09T12:05:29.364Z,8.20
2019-05-09T12:07:59.376Z,8.67
2019-05-09T12:10:29.292Z,10.43
2019-05-09T12:12:59.400Z,9.87
2019-05-09T12:15:29.708Z,9.97
2019-05-09T12:18:07.659Z,10.87
2019-05-09T12:20:31.502Z,12.87
2019-05-09T12:23:01.663Z,10.53
2019-05-09T12:25:31.621Z,8.50
2019-05-09T12:28:01.537Z,11.03
2019-05-09T12:30:31.657Z,8.73
2019-05-09T12:33:02.348Z,6.20
2019-05-09T12:35:32.260Z,8.27
2019-05-09T12:38:02.171Z,8.87
2019-05-09T12:40:32.193Z,6.53
2019-05-09T12:43:02.193Z,5.97
2019-05-09T12:45:32.108Z,7.93
2019-05-09T12:48:10.327Z,8.80
2019-05-09T12:50:33.705Z,7.70
2019-05-09T12:53:03.910Z,7.00
2019-05-09T12:55:34.367Z,5.87
2019-05-09T12:58:04.774Z,8.03
2019-05-09T13:00:35.127Z,7.13
2019-05-09T13:03:08.066Z,7.27
2019-05-09T13:05:38.859Z,8.37
2019-05-09T13:08:10.450Z,8.13
2019-05-09T13:10:40.482Z,7.30
2019-05-09T13:13:10.594Z,6.20
2019-05-09T13:15:42.852Z,7.83
2019-05-09T13:18:21.824Z,6.17
2019-05-09T13:20:44.677Z,7.90
2019-05-09T13:23:14.964Z,6.40
2019-05-09T13:25:45.103Z,9.10
2019-05-09T13:28:17.486Z,6.93
2019-05-09T13:30:48.831Z,6.83
2019-05-09T13:33:18.986Z,6.87
2019-05-09T13:35:48.955Z,8.73
2019-05-09T13:38:18.890Z,9.17
2019-05-09T13:40:53.683Z,3.90
2019-05-09T13:43:20.759Z,5.50
2019-05-09T13:45:50.672Z,6.57
2019-05-09T13:48:28.023Z,8.87
2019-05-09T13:50:52.469Z,6.53
2019-05-09T13:53:22.481Z,10.50
2019-05-09T13:55:52.586Z,6.23
2019-05-09T13:58:22.563Z,6.10
2019-05-09T14:00:59.248Z,5.50
2019-05-09T14:03:24.194Z,6.93
2019-05-09T14:05:54.117Z,6.10
2019-05-09T14:08:24.233Z,5.80
2019-05-09T14:10:54.134Z,7.57
2019-05-09T14:13:24.185Z,4.00
2019-05-09T14:15:54.156Z,6.07
2019-05-09T14:18:24.069Z,4.57
2019-05-09T14:20:54.084Z,5.20
2019-05-09T14:23:24.009Z,5.70
2019-05-09T14:25:53.906Z,7.43
2019-05-09T14:28:23.823Z,6.43
2019-05-09T14:30:54.028Z,8.60
2019-05-09T14:33:23.941Z,6.20
2019-05-09T14:35:53.855Z,6.93
2019-05-09T14:38:23.769Z,8.67
2019-05-09T14:40:53.681Z,5.57
2019-05-09T14:43:23.594Z,6.87
2019-05-09T14:45:53.509Z,4.17
2019-05-09T14:48:23.618Z,6.97
2019-05-09T14:50:53.630Z,6.50
2019-05-09T14:53:23.542Z,6.67
2019-05-09T14:55:53.953Z,6.17
2019-05-09T14:58:23.762Z,8.77
2019-05-09T15:00:53.678Z,6.23
2019-05-09T15:03:23.673Z,6.50
2019-05-09T15:05:53.601Z,6.50
2019-05-09T15:08:23.516Z,6.90
2019-05-09T15:10:53.527Z,5.43
2019-05-09T15:13:23.440Z,4.30
2019-05-09T15:15:53.748Z,8.83
2019-05-09T15:18:24.361Z,6.40
2019-05-09T15:20:54.358Z,8.20
2019-05-09T15:23:24.571Z,6.50
2019-05-09T15:25:54.497Z,7.40
2019-05-09T15:28:24.446Z,7.43
2019-05-09T15:30:54.407Z,7.37
2019-05-09T15:33:24.418Z,4.77
2019-05-09T15:35:54.332Z,6.43
2019-05-09T15:38:24.550Z,7.37
2019-05-09T15:40:54.453Z,4.50
2019-05-09T15:43:24.368Z,6.30
2019-05-09T15:45:57.989Z,5.33
2019-05-09T15:48:27.602Z,6.67
2019-05-09T15:50:58.283Z,6.00
2019-05-09T15:53:28.542Z,6.73
2019-05-09T15:55:58.933Z,7.33
2019-05-09T15:58:29.450Z,6.13
2019-05-09T16:00:59.364Z,8.20
2019-05-09T16:03:29.276Z,6.07
2019-05-09T16:05:59.387Z,4.33
2019-05-09T16:08:29.500Z,5.10
2019-05-09T16:10:59.805Z,6.17
2019-05-09T16:13:30.309Z,10.23
2019-05-09T16:16:00.434Z,5.37
2019-05-09T16:18:30.345Z,5.03
2019-05-09T16:21:00.538Z,6.47
2019-05-09T16:23:30.553Z,5.47
2019-05-09T16:26:00.559Z,4.77
2019-05-09T16:28:30.476Z,6.57
2019-05-09T16:31:00.293Z,5.00
2019-05-09T16:33:30.403Z,6.33
2019-05-09T16:36:00.510Z,5.20
2019-05-09T16:38:42.152Z,7.33
2019-05-09T16:41:02.105Z,4.17
2019-05-09T16:43:32.018Z,4.00
2019-05-09T16:46:02.136Z,4.90
2019-05-09T16:48:32.139Z,4.20
2019-05-09T16:51:04.408Z,5.60
2019-05-09T16:53:33.836Z,6.10
2019-05-09T16:56:04.329Z,4.80
2019-05-09T16:58:34.252Z,4.33
2019-05-09T17:01:04.560Z,4.67
2019-05-09T17:03:34.567Z,5.67
2019-05-09T17:06:04.873Z,4.33
2019-05-09T17:08:34.796Z,5.33
2019-05-09T17:11:04.995Z,5.87
2019-05-09T17:13:34.914Z,7.70
2019-05-09T17:16:04.924Z,7.47
2019-05-09T17:18:35.030Z,6.50
2019-05-09T17:21:18.244Z,5.30
2019-05-09T17:23:42.229Z,5.90
2019-05-09T17:26:12.142Z,6.17
2019-05-09T17:28:42.495Z,7.80
2019-05-09T17:31:12.593Z,5.63
2019-05-09T17:33:42.385Z,6.70
2019-05-09T17:36:12.389Z,9.10
2019-05-09T17:38:42.533Z,6.40
2019-05-09T17:41:12.823Z,6.03
2019-05-09T17:43:43.150Z,4.10
2019-05-09T17:46:13.121Z,7.57
2019-05-09T17:48:43.240Z,10.67
2019-05-09T17:51:13.538Z,7.97
2019-05-09T17:53:43.404Z,4.27
2019-05-09T17:56:13.462Z,5.53
2019-05-09T17:58:43.893Z,4.93
2019-05-09T18:01:14.280Z,6.23
2019-05-09T18:03:44.381Z,6.33
2019-05-09T18:06:14.298Z,6.63
2019-05-09T18:08:44.095Z,7.20
2019-05-09T18:11:14.160Z,7.83
2019-05-09T18:13:44.141Z,8.37
2019-05-09T18:16:14.537Z,5.03
2019-05-09T18:18:44.780Z,11.57
2019-05-09T18:21:14.968Z,9.63
2019-05-09T18:23:47.415Z,5.40
2019-05-09T18:26:18.586Z,7.10
2019-05-09T18:28:49.020Z,5.33
2019-05-09T18:31:19.134Z,10.17
2019-05-09T18:33:53.250Z,9.23
2019-05-09T18:36:23.046Z,6.10
2019-05-09T18:38:53.294Z,8.03
2019-05-09T18:41:23.206Z,8.87
2019-05-09T18:43:53.218Z,7.23
2019-05-09T18:46:23.722Z,6.97
2019-05-09T18:48:54.042Z,7.53
2019-05-09T18:51:24.061Z,8.83
2019-05-09T18:53:54.347Z,6.73
2019-05-09T18:56:24.656Z,8.77
2019-05-09T18:58:54.571Z,8.87
2019-05-09T19:01:24.413Z,9.63
2019-05-09T19:03:54.493Z,9.03
2019-05-09T19:06:24.417Z,8.90
2019-05-09T19:08:54.452Z,9.53
2019-05-09T19:11:24.529Z,9.83
2019-05-09T19:13:55.075Z,5.93
2019-05-09T19:16:35.461Z,9.23
2019-05-09T19:19:19.936Z,8.43
2019-05-09T19:21:51.507Z,9.23
2019-05-09T19:24:21.656Z,8.90
2019-05-09T19:26:51.826Z,9.93
2019-05-09T19:29:21.751Z,11.53
2019-05-09T19:31:51.762Z,7.77
2019-05-09T19:34:21.795Z,8.07
2019-05-09T19:36:51.616Z,8.50
2019-05-09T19:39:21.413Z,10.53
2019-05-09T19:41:51.406Z,9.47
2019-05-09T19:44:21.210Z,8.90
2019-05-09T19:46:51.245Z,9.47
2019-05-09T19:49:21.175Z,11.50
2019-05-09T19:51:51.258Z,7.93
2019-05-09T19:54:21.050Z,9.07
2019-05-09T19:56:50.987Z,6.80
2019-05-09T19:59:20.898Z,10.53
2019-05-09T20:01:50.913Z,7.87
2019-05-09T20:04:20.822Z,14.30
2019-05-09T20:06:50.949Z,13.90
2019-05-09T20:09:22.280Z,19.50
2019-05-09T20:11:56.658Z,18.53
2019-05-09T20:14:31.206Z,18.03
2019-05-09T20:17:01.599Z,16.40
2019-05-09T20:19:31.520Z,15.90
2019-05-09T20:22:01.503Z,13.50
2019-05-09T20:24:31.706Z,13.90
2019-05-09T20:27:01.644Z,14.53
2019-05-09T20:29:31.653Z,9.47
2019-05-09T20:32:01.664Z,8.93
2019-05-09T20:35:44.147Z,8.70
2019-05-09T20:38:14.533Z,11.33
2019-05-09T20:40:44.741Z,10.57
2019-05-09T20:43:14.765Z,10.00
2019-05-09T20:45:44.894Z,8.70
2019-05-09T20:48:15.074Z,11.37
2019-05-09T20:50:45.279Z,12.13
2019-05-09T20:53:15.487Z,9.80
2019-05-09T20:55:45.626Z,9.63
2019-05-09T20:58:15.715Z,7.87
2019-05-09T21:00:46.014Z,16.27
2019-05-09T21:03:16.544Z,13.20
2019-05-09T21:05:46.539Z,21.47
2019-05-09T21:08:16.641Z,21.97
2019-05-09T21:10:46.946Z,21.17
2019-05-09T21:13:16.960Z,20.03
2019-05-09T21:15:47.174Z,16.93
2019-05-09T21:18:17.360Z,17.53
2019-05-09T21:20:47.581Z,14.10
2019-05-09T21:23:24.773Z,11.83
2019-05-09T21:25:49.866Z,12.33
2019-05-09T21:28:20.082Z,15.47
2019-05-09T21:30:50.189Z,12.37
2019-05-09T21:33:20.169Z,12.63
2019-05-09T21:35:50.406Z,14.83
2019-05-09T21:38:20.416Z,31.10
2019-05-09T21:40:50.330Z,19.40
2019-05-09T21:43:20.243Z,13.67
2019-05-09T21:45:50.161Z,18.60
2019-05-09T21:48:20.364Z,14.50
2019-05-09T21:50:50.575Z,18.57
2019-05-09T21:53:20.587Z,12.90
2019-05-09T21:55:51.101Z,13.90
2019-05-09T21:58:21.139Z,15.70
2019-05-09T22:00:55.407Z,18.33
2019-05-09T22:03:25.939Z,19.20
2019-05-09T22:05:56.053Z,19.90
2019-05-09T22:08:25.976Z,19.43
2019-05-09T22:10:55.991Z,21.30
2019-05-09T22:13:26.085Z,21.27
2019-05-09T22:15:55.998Z,20.13
2019-05-09T22:18:25.848Z,15.90
2019-05-09T22:20:56.020Z,15.67
2019-05-09T22:23:26.083Z,9.63
2019-05-09T22:25:56.143Z,10.63
2019-05-09T22:28:26.056Z,11.93
2019-05-09T22:30:56.183Z,7.93
2019-05-09T22:33:26.178Z,10.80
2019-05-09T22:35:56.582Z,12.97
2019-05-09T22:38:26.411Z,11.30
2019-05-09T22:40:56.508Z,17.30
2019-05-09T22:43:26.911Z,9.27
2019-05-09T22:45:56.826Z,11.03
2019-05-09T22:48:26.637Z,13.60
2019-05-09T22:50:56.515Z,12.10
2019-05-09T22:53:26.802Z,10.80
2019-05-09T22:55:56.970Z,12.77
2019-05-09T22:58:26.883Z,11.30
2019-05-09T23:00:56.674Z,12.87
2019-05-09T23:03:26.711Z,10.77
2019-05-09T23:05:56.721Z,8.70
2019-05-09T23:08:27.717Z,11.27
2019-05-09T23:10:57.612Z,9.47
2019-05-09T23:13:27.680Z,9.43
2019-05-09T23:15:57.554Z,9.53
2019-05-09T23:18:27.568Z,14.23
2019-05-09T23:20:57.897Z,10.27
2019-05-09T23:23:32.518Z,11.83
2019-05-09T23:26:02.485Z,12.60
2019-05-09T23:28:33.070Z,9.70
2019-05-09T23:31:07.160Z,9.73
2019-05-09T23:33:38.536Z,12.33
2019-05-09T23:36:08.563Z,12.13
2019-05-09T23:38:40.148Z,12.60
2019-05-09T23:41:10.284Z,11.87
2019-05-09T23:43:40.274Z,9.13
2019-05-09T23:46:10.572Z,9.13
2019-05-09T23:48:40.693Z,11.90
2019-05-09T23:51:10.683Z,11.73
2019-05-09T23:53:41.303Z,12.73
2019-05-09T23:56:29.401Z,8.27
2019-05-09T23:59:17.033Z,8.67
